Flight Track Log - Related Links

Times and Time Zones

All times are in EDT time to prevent confusion due to time zone crossing. See the DAL2082 flight status page for this flight to view local times or setup timezone preferences in your user account.

Time Position Orientation Groundspeed Altitude Reporting Facility
EDT Latitude Longitude Course Direction KTS MPH feet Rate Location/Type
Tue 05:35:19 PM 42.9000 -71.4167 202° Southwest 177 204 1,300  Level KA90
Tue 05:36:20 PM 42.8500 -71.4500 206° Southwest 238 274 3,500 2,450 Climbing KA90
Tue 05:37:19 PM 42.8167 -71.3833 124° Southeast 304 350 6,200 2,474 Climbing KA90
Tue 05:38:00 PM 43.0708 -71.0333 71° East  Level FlightAware Approximate
Tue 05:38:14 PM 42.8667 -71.3000 51° Northeast 311 358 8,200  Level KA90
Tue 05:39:00 PM 43.0305 -70.9138 144° Southeast  Level FlightAware Approximate
Tue 05:40:00 PM 42.9336 -70.8943 202° Southwest  Level FlightAware Approximate
Tue 05:40:32 PM 43.0308 -71.1419 35° Northeast 364 419 11,900  Level Boston Center
Tue 05:41:32 PM 43.0686 -70.9964 70° East 365 420 14,200 2,100 Climbing Boston Center
Tue 05:42:32 PM 43.0072 -70.9267 140° Southeast 325 374 16,100 1,900 Climbing Boston Center
Tue 05:43:32 PM 42.8722 -70.9556 189° South 339 390 18,000 1,600 Climbing Boston Center
Tue 05:44:32 PM 42.7850 -70.9803 192° South 364 419 19,300 1,800 Climbing Boston Center
Tue 05:45:32 PM 42.6525 -71.0483 201° Southwest 393 452 21,600 1,850 Climbing Boston Center
Tue 05:46:32 PM 42.5406 -71.1072 201° Southwest 416 479 23,000 1,350 Climbing Boston Center
Tue 05:47:32 PM 42.4753 -71.2353 235° Southwest 406 467 24,300 1,350 Climbing Boston Center
Tue 05:48:32 PM 42.4436 -71.3964 255° West 407 468 25,700 1,500 Climbing Boston Center
Tue 05:49:32 PM 42.4156 -71.5514 256° West 422 486 27,300 1,550 Climbing Boston Center
Tue 05:50:32 PM 42.3772 -71.7039 251° West 429 494 28,800 1,500 Climbing Boston Center
Tue 05:51:32 PM 42.3258 -71.8392 243° Southwest 423 487 30,300 1,400 Climbing Boston Center
Tue 05:52:32 PM 42.2661 -71.9772 240° Southwest 418 481 31,600 1,200 Climbing Boston Center
Tue 05:53:32 PM 42.2081 -72.1094 239° Southwest 418 481 32,700 1,100 Climbing Boston Center
Tue 05:54:32 PM 42.1481 -72.2386 238° Southwest 418 481 33,800 650 Climbing Boston Center
Tue 05:55:32 PM 42.1022 -72.3422 239° Southwest 418 481 34,000 100 Climbing Boston Center
Tue 05:56:32 PM 42.0378 -72.4847 239° Southwest 412 474 34,000  Level Boston Center
Tue 05:57:32 PM 41.9814 -72.6189 241° Southwest 412 474 34,000  Level Boston Center
Tue 05:58:32 PM 41.9372 -72.7472 245° Southwest 400 460 34,000  Level Boston Center
Tue 05:59:32 PM 41.8889 -72.8836 245° Southwest 400 460 34,000  Level Boston Center
Tue 06:00:32 PM 41.8361 -73.0281 244° Southwest 411 473 34,000  Level Boston Center
Tue 06:01:32 PM 41.7833 -73.1639 243° Southwest 416 479 34,000  Level Boston Center
Tue 06:02:32 PM 41.7261 -73.2939 240° Southwest 416 479 34,000  Level Boston Center
Tue 06:03:32 PM 41.6583 -73.4153 233° Southwest 416 479 34,000  Level Boston Center
Tue 06:04:44 PM 41.5758 -73.5583 232° Southwest 416 479 34,000  Level Boston Center
Tue 06:06:52 PM 41.4308 -73.8011 232° Southwest 398 458 34,000  Level New York Center
Tue 06:07:53 PM 41.3614 -73.9167 231° Southwest 409 471 34,000  Level New York Center
Tue 06:08:53 PM 41.2850 -74.0400 231° Southwest 414 476 34,000  Level New York Center
Tue 06:09:52 PM 41.2131 -74.1581 231° Southwest 414 476 34,000  Level New York Center
Tue 06:10:52 PM 41.1367 -74.2753 229° Southwest 420 483 34,000  Level New York Center
Tue 06:11:53 PM 41.0644 -74.3928 231° Southwest 420 483 34,000  Level New York Center
Tue 06:12:50 PM 40.9919 -74.5097 231° Southwest 420 483 34,000  Level New York Center
Tue 06:13:51 PM 40.9194 -74.6319 232° Southwest 420 483 34,000  Level New York Center
Tue 06:14:52 PM 40.8467 -74.7458 230° Southwest 420 483 34,000  Level New York Center
Tue 06:15:52 PM 40.7781 -74.8706 234° Southwest 420 483 34,000  Level New York Center
Tue 06:16:53 PM 40.7192 -75.0014 239° Southwest 426 490 34,000  Level New York Center
Tue 06:17:53 PM 40.6581 -75.1369 239° Southwest 426 490 34,000  Level New York Center
Tue 06:18:51 PM 40.5989 -75.2644 239° Southwest 421 484 34,000  Level New York Center
Tue 06:19:51 PM 40.5397 -75.3972 240° Southwest 421 484 34,000  Level New York Center
Tue 06:20:52 PM 40.4825 -75.5269 240° Southwest 421 484 34,000  Level New York Center
Tue 06:21:52 PM 40.4206 -75.6617 239° Southwest 421 484 34,000  Level New York Center
Tue 06:22:53 PM 40.3611 -75.7883 238° Southwest 416 479 34,000  Level New York Center
Tue 06:23:51 PM 40.2925 -75.9275 237° Southwest 410 472 34,000  Level New York Center
Tue 06:24:51 PM 40.2308 -76.0536 237° Southwest 415 478 34,000  Level New York Center
Tue 06:25:52 PM 40.1731 -76.1794 239° Southwest 415 478 34,000  Level New York Center
Tue 06:26:52 PM 40.1194 -76.2975 239° Southwest 406 467 34,000  Level New York Center
Tue 06:27:53 PM 40.0614 -76.4258 239° Southwest 412 474 34,000  Level New York Center
Tue 06:28:51 PM 40.0028 -76.5567 240° Southwest 412 474 34,000  Level New York Center
Tue 06:29:52 PM 39.9422 -76.6844 238° Southwest 412 474 34,000  Level New York Center
Tue 06:30:52 PM 39.8817 -76.8119 238° Southwest 417 480 34,000  Level New York Center
Tue 06:32:58 PM 39.7522 -77.0919 239° Southwest 413 475 34,000  Level Washington Center
Tue 06:33:58 PM 39.6922 -77.2175 238° Southwest 413 475 34,000  Level Washington Center
Tue 06:34:59 PM 39.6322 -77.3347 236° Southwest 402 463 34,000  Level Washington Center
Tue 06:35:57 PM 39.5850 -77.4306 237° Southwest 402 463 34,000  Level Washington Center
Tue 06:36:58 PM 39.5119 -77.5739 237° Southwest 402 463 34,000  Level Washington Center
Tue 06:37:58 PM 39.4556 -77.6961 239° Southwest 408 470 34,000 -50 Level Washington Center
Tue 06:38:57 PM 39.3972 -77.8206 239° Southwest 408 470 33,900  Descending Washington Center
Tue 06:39:58 PM 39.3447 -77.9506 242° Southwest 408 470 34,000 50 Climbing Washington Center
Tue 06:40:58 PM 39.2900 -78.0775 241° Southwest 408 470 34,000  Level Washington Center
Tue 06:41:59 PM 39.2481 -78.1914 245° Southwest 403 464 34,000  Level Washington Center
Tue 06:42:59 PM 39.1972 -78.3153 242° Southwest 403 464 34,000  Level Washington Center
Tue 06:43:57 PM 39.1464 -78.4419 243° Southwest 403 464 34,000  Level Washington Center
Tue 06:44:57 PM 39.0978 -78.5631 243° Southwest 403 464 34,000  Level Washington Center
Tue 06:45:58 PM 39.0486 -78.6867 243° Southwest 403 464 34,000  Level Washington Center
Tue 06:46:59 PM 38.9997 -78.8103 243° Southwest 403 464 34,000  Level Washington Center
Tue 06:47:57 PM 38.9503 -78.9336 243° Southwest 398 458 34,000  Level Washington Center
Tue 06:48:57 PM 38.8989 -79.0567 242° Southwest 398 458 34,000  Level Washington Center
Tue 06:49:59 PM 38.8494 -79.1822 243° Southwest 398 458 34,000  Level Washington Center
Tue 06:50:57 PM 38.8203 -79.3167 254° West 398 458 34,000  Level Washington Center
Tue 06:51:57 PM 38.7969 -79.4594 258° West 398 458 34,000  Level Washington Center
Tue 06:52:57 PM 38.7736 -79.6019 258° West 405 466 34,000  Level Washington Center
Tue 06:53:58 PM 38.7456 -79.7522 257° West 412 474 34,000  Level Washington Center
Tue 06:54:58 PM 38.7197 -79.8892 256° West 407 468 34,000  Level Washington Center
Tue 06:55:47 PM 38.6975 -79.9894 254° West 394 453 34,000  Level Indianapolis Center
Tue 06:56:49 PM 38.6714 -80.1278 256° West 400 460 34,000  Level Indianapolis Center
Tue 06:57:51 PM 38.6458 -80.2664 257° West 400 460 34,000  Level Indianapolis Center
Tue 06:58:52 PM 38.6181 -80.4064 256° West 402 463 34,000  Level Indianapolis Center
Tue 06:59:54 PM 38.5922 -80.5486 257° West 410 472 34,000  Level Indianapolis Center
Tue 07:00:56 PM 38.5575 -80.7242 256° West 418 481 34,000  Level Indianapolis Center
Tue 07:01:58 PM 38.5300 -80.8661 256° West 417 480 34,000  Level Indianapolis Center
Tue 07:03:00 PM 38.5017 -81.0106 256° West 417 480 34,000  Level Indianapolis Center
Tue 07:04:02 PM 38.4731 -81.1542 256° West 416 479 34,000  Level Indianapolis Center
Tue 07:05:04 PM 38.4433 -81.3000 255° West 420 483 34,000  Level Indianapolis Center
Tue 07:06:06 PM 38.4131 -81.4456 255° West 419 482 34,000  Level Indianapolis Center
Tue 07:07:07 PM 38.3861 -81.5881 256° West 411 473 34,000  Level Indianapolis Center
Tue 07:08:09 PM 38.3564 -81.7292 255° West 409 471 34,000  Level Indianapolis Center
Tue 07:09:11 PM 38.2733 -81.8111 218° Southwest 389 448 34,000  Level Indianapolis Center
Tue 07:10:13 PM 38.1522 -81.8603 198° South 383 441 34,000  Level Indianapolis Center
Tue 07:11:15 PM 38.0497 -81.9022 198° South 385 443 34,000  Level Indianapolis Center
Tue 07:12:16 PM 37.9469 -81.9447 198° South 388 447 34,000  Level Indianapolis Center
Tue 07:13:18 PM 37.8436 -81.9900 199° South 392 451 34,000  Level Indianapolis Center
Tue 07:14:20 PM 37.7358 -82.0369 199° South 389 448 34,000  Level Indianapolis Center
Tue 07:15:22 PM 37.6336 -82.0844 200° South 390 449 34,000  Level Indianapolis Center
Tue 07:16:24 PM 37.5294 -82.1264 198° South 391 450 34,000  Level Indianapolis Center
Tue 07:17:25 PM 37.4253 -82.1725 199° South 395 455 34,000  Level Indianapolis Center
Tue 07:18:27 PM 37.3025 -82.2244 199° South 399 459 34,000  Level Indianapolis Center
Tue 07:19:29 PM 37.1975 -82.2689 199° South 396 456 34,000  Level Indianapolis Center
Tue 07:20:31 PM 37.0928 -82.3122 198° South 395 455 34,000  Level Indianapolis Center
Tue 07:21:33 PM 36.9869 -82.3561 198° South 398 458 34,000  Level Indianapolis Center
Tue 07:22:34 PM 36.8794 -82.3992 198° South 400 460 34,000  Level Indianapolis Center
Tue 07:23:36 PM 36.7725 -82.4439 199° South 402 463 34,000  Level Indianapolis Center
Tue 07:24:38 PM 36.6669 -82.4900 199° South 398 458 34,000  Level Indianapolis Center
Tue 07:25:28 PM 36.5767 -82.5239 197° South 398 458 34,000  Level Atlanta Center
Tue 07:26:28 PM 36.4708 -82.5697 199° South 398 458 34,000  Level Atlanta Center
Tue 07:27:28 PM 36.3650 -82.6156 199° South 403 464 34,000  Level Atlanta Center
Tue 07:28:28 PM 36.2592 -82.6586 198° South 403 464 34,000  Level Atlanta Center
Tue 07:29:28 PM 36.1511 -82.7017 198° South 403 464 34,000  Level Atlanta Center
Tue 07:30:28 PM 36.0347 -82.7497 198° South 403 464 34,000  Level Atlanta Center
Tue 07:31:28 PM 35.9289 -82.7975 200° South 403 464 34,000  Level Atlanta Center
Tue 07:32:28 PM 35.8208 -82.8403 198° South 403 464 34,000  Level Atlanta Center
Tue 07:33:28 PM 35.7150 -82.8853 199° South 403 464 34,000  Level Atlanta Center
Tue 07:34:28 PM 35.6089 -82.9300 199° South 403 464 34,000 -950 Level Atlanta Center
Tue 07:35:28 PM 35.5050 -82.9878 204° Southwest 409 471 32,100 -1,850 Descending Atlanta Center
Tue 07:36:28 PM 35.4014 -83.0528 207° Southwest 419 482 30,300 -1,450 Descending Atlanta Center
Tue 07:37:28 PM 35.2975 -83.1200 208° Southwest 424 488 29,200 -1,200 Descending Atlanta Center
Tue 07:38:28 PM 35.1936 -83.1797 205° Southwest 424 488 27,900 -1,100 Descending Atlanta Center
Tue 07:39:28 PM 35.0897 -83.2467 208° Southwest 424 488 27,000 -1,100 Descending Atlanta Center
Tue 07:40:28 PM 34.9836 -83.3086 206° Southwest 433 498 25,700 -1,000 Descending Atlanta Center
Tue 07:41:28 PM 34.8778 -83.3753 207° Southwest 426 490 25,000 -850 Descending Atlanta Center
Tue 07:42:28 PM 34.7736 -83.4344 205° Southwest 426 490 24,000 -800 Descending Atlanta Center
Tue 07:43:28 PM 34.6656 -83.5008 207° Southwest 426 490 23,400 -600 Descending Atlanta Center
Tue 07:44:28 PM 34.5739 -83.5544 206° Southwest 420 483 22,800 -550 Descending Atlanta Center
Tue 07:45:28 PM 34.4739 -83.6156 207° Southwest 412 474 22,300 -1,200 Descending Atlanta Center
Tue 07:46:28 PM 34.3614 -83.6814 206° Southwest 412 474 20,400 -2,400 Descending Atlanta Center
Tue 07:47:28 PM 34.2636 -83.7422 207° Southwest 399 459 17,500 -2,750 Descending Atlanta Center
Tue 07:48:28 PM 34.1675 -83.7978 206° Southwest 393 452 14,900 -1,750 Descending Atlanta Center
Tue 07:49:28 PM 34.0781 -83.8533 207° Southwest 378 435 14,000 -833 Descending Atlanta Center
Tue 07:50:16 PM 34.0167 -83.9333 227° Southwest 370 426 13,400 -1,333 Descending Atlanta TRACON
Tue 07:51:16 PM 33.9500 -84.0167 226° Southwest 367 422 11,600 -1,263 Descending Atlanta TRACON
Tue 07:52:10 PM 33.8833 -84.0667 212° Southwest 334 384 11,000 -316 Descending Atlanta TRACON
Tue 07:53:10 PM 33.8333 -84.1500 234° Southwest 279 321 11,000  Level Atlanta TRACON
Tue 07:54:10 PM 33.8000 -84.2333 244° Southwest 278 320 11,000  Level Atlanta TRACON
Tue 07:55:04 PM 33.7833 -84.3167 256° West 282 325 11,000 -368 Level Atlanta TRACON
Tue 07:56:04 PM 33.7667 -84.4000 256° West 277 319 10,300 -1,684 Descending Atlanta TRACON
Tue 07:56:58 PM 33.7500 -84.4833 256° West 275 316 7,800 -2,632 Descending Atlanta TRACON
Tue 07:57:58 PM 33.7333 -84.5667 256° West 269 310 5,300 -1,400 Descending Atlanta TRACON
Tue 07:58:58 PM 33.7333 -84.6667 270° West 270 311 5,000 -300 Descending Atlanta TRACON
Tue 07:59:58 PM 33.6833 -84.7000 209° Southwest 230 265 4,700 -450 Descending Atlanta TRACON
Tue 08:00:58 PM 33.6500 -84.6500 129° Southeast 191 220 4,100 -600 Descending Atlanta TRACON

Login

Don't have an account? Register now (free) for customized features, flight alerts, and more!